createdAt,value
2018-07-04T04:00:53.910Z,16.59
2018-07-04T04:01:53.790Z,16.62
2018-07-04T04:03:46.474Z,16.62
2018-07-04T04:04:46.370Z,16.69
2018-07-04T04:06:39.073Z,16.62
2018-07-04T04:07:38.949Z,16.62
2018-07-04T04:09:31.628Z,16.74
2018-07-04T04:10:31.529Z,16.77
2018-07-04T04:12:24.227Z,16.65
2018-07-04T04:13:24.101Z,16.66
2018-07-04T04:15:16.785Z,16.67
2018-07-04T04:16:16.680Z,16.70
2018-07-04T04:18:09.376Z,16.73
2018-07-04T04:19:09.260Z,16.72
2018-07-04T04:21:01.940Z,16.76
2018-07-04T04:22:01.836Z,16.69
2018-07-04T04:23:54.533Z,16.69
2018-07-04T04:24:54.411Z,16.65
2018-07-04T04:26:47.119Z,16.76
2018-07-04T04:27:46.985Z,16.66
2018-07-04T04:29:39.672Z,16.67
2018-07-04T04:30:39.564Z,16.77
2018-07-04T04:32:32.268Z,16.76
2018-07-04T04:33:32.140Z,16.82
2018-07-04T04:35:24.824Z,16.88
2018-07-04T04:36:24.732Z,16.92
2018-07-04T04:38:17.421Z,16.94
2018-07-04T04:39:17.299Z,16.84
2018-07-04T04:41:09.982Z,17.06
2018-07-04T04:42:09.879Z,17.06
2018-07-04T04:44:02.585Z,17.07
2018-07-04T04:45:02.460Z,17.05
2018-07-04T04:46:55.138Z,17.10
2018-07-04T04:47:55.040Z,17.18
2018-07-04T04:49:47.738Z,17.25
2018-07-04T04:50:47.620Z,17.18
2018-07-04T04:52:40.304Z,17.30
2018-07-04T04:53:40.193Z,17.31
2018-07-04T04:55:32.904Z,17.40
2018-07-04T04:56:32.911Z,17.43
2018-07-04T04:58:25.706Z,17.45
2018-07-04T04:59:25.358Z,17.54
2018-07-04T05:01:18.060Z,17.54
2018-07-04T05:02:17.961Z,17.52
2018-07-04T05:04:10.623Z,17.62
2018-07-04T05:05:10.522Z,17.60
2018-07-04T05:07:03.259Z,17.63
2018-07-04T05:08:03.106Z,17.84
2018-07-04T05:09:55.807Z,18.01
2018-07-04T05:10:55.691Z,17.87
2018-07-04T05:12:48.372Z,17.96
2018-07-04T05:13:48.272Z,18.05
2018-07-04T05:15:41.002Z,18.19
2018-07-04T05:16:40.843Z,18.29
2018-07-04T05:18:33.529Z,18.26
2018-07-04T05:19:33.432Z,18.31
2018-07-04T05:21:26.132Z,18.29
2018-07-04T05:22:26.015Z,18.34
2018-07-04T05:24:18.702Z,18.34
2018-07-04T05:25:18.590Z,18.54
2018-07-04T05:27:11.291Z,18.59
2018-07-04T05:28:11.192Z,18.57
2018-07-04T05:30:03.858Z,18.63
2018-07-04T05:31:03.753Z,18.71
2018-07-04T05:32:56.459Z,18.68
2018-07-04T05:33:56.339Z,18.81
2018-07-04T05:35:49.040Z,18.87
2018-07-04T05:36:48.927Z,18.82
2018-07-04T05:38:41.601Z,19.07
2018-07-04T05:39:41.506Z,19.07
2018-07-04T05:41:34.210Z,19.32
2018-07-04T05:42:34.089Z,19.46
2018-07-04T05:44:26.786Z,19.49
2018-07-04T05:45:26.677Z,19.57
2018-07-04T05:47:19.377Z,19.60
2018-07-04T05:48:19.257Z,19.55
2018-07-04T05:50:11.945Z,19.56
2018-07-04T05:51:11.844Z,19.65
2018-07-04T05:53:04.544Z,20.00
2018-07-04T05:54:04.423Z,19.89
2018-07-04T05:55:57.113Z,19.97
2018-07-04T05:56:57.016Z,19.90
2018-07-04T05:58:49.718Z,19.89
2018-07-04T05:59:49.789Z,19.80
2018-07-04T06:01:42.306Z,20.10
2018-07-04T06:02:42.238Z,20.29
2018-07-04T06:04:34.893Z,20.32
2018-07-04T06:05:34.788Z,20.30
2018-07-04T06:07:27.500Z,20.44
2018-07-04T06:08:27.378Z,20.27
2018-07-04T06:10:20.073Z,20.38
2018-07-04T06:11:19.973Z,20.56
2018-07-04T06:13:12.672Z,20.91
2018-07-04T06:14:12.559Z,20.98
2018-07-04T06:16:05.244Z,21.53
2018-07-04T06:17:05.161Z,21.64
2018-07-04T06:18:57.853Z,21.93
2018-07-04T06:19:57.735Z,22.14
2018-07-04T06:21:50.437Z,22.78
2018-07-04T06:22:50.334Z,23.55
2018-07-04T06:24:43.106Z,23.72
2018-07-04T06:25:42.931Z,23.92
2018-07-04T06:27:35.647Z,23.85
2018-07-04T06:28:35.529Z,23.37
2018-07-04T06:30:28.220Z,22.66
2018-07-04T06:31:28.124Z,22.52
2018-07-04T06:33:20.858Z,22.41
2018-07-04T06:34:20.724Z,22.24
2018-07-04T06:36:13.417Z,21.99
2018-07-04T06:37:13.321Z,21.83
2018-07-04T06:39:06.090Z,21.96
2018-07-04T06:40:05.916Z,22.15
2018-07-04T06:41:58.604Z,21.97
2018-07-04T06:42:58.506Z,22.00
2018-07-04T06:44:51.223Z,21.99
2018-07-04T06:45:51.104Z,21.97
2018-07-04T06:47:43.805Z,21.82
2018-07-04T06:48:43.702Z,21.97
2018-07-04T06:50:36.412Z,22.09
2018-07-04T06:51:36.299Z,22.27
2018-07-04T06:53:29.004Z,22.42
2018-07-04T06:54:28.952Z,22.23
2018-07-04T06:56:21.587Z,22.22
2018-07-04T06:57:21.485Z,22.26
2018-07-04T06:59:14.197Z,22.00
2018-07-04T07:00:14.071Z,22.14
2018-07-04T07:02:06.767Z,22.41
2018-07-04T07:03:06.672Z,22.42
2018-07-04T07:04:59.380Z,22.59
2018-07-04T07:05:59.261Z,22.69
2018-07-04T07:07:51.990Z,22.71
2018-07-04T07:08:51.864Z,22.85
2018-07-04T07:10:44.555Z,23.14
2018-07-04T07:11:44.450Z,23.03
2018-07-04T07:13:37.170Z,23.12
2018-07-04T07:14:37.050Z,23.15
2018-07-04T07:16:29.738Z,23.22
2018-07-04T07:17:29.644Z,23.21
2018-07-04T07:19:22.349Z,23.37
2018-07-04T07:20:22.234Z,23.38
2018-07-04T07:22:14.932Z,24.00
2018-07-04T07:23:14.841Z,24.77
2018-07-04T07:25:07.554Z,26.44
2018-07-04T07:26:07.444Z,27.09
2018-07-04T07:28:00.138Z,27.75
2018-07-04T07:29:00.046Z,26.97
2018-07-04T07:30:52.766Z,26.23
2018-07-04T07:31:52.650Z,26.16
2018-07-04T07:33:45.350Z,26.26
2018-07-04T07:34:45.252Z,26.17
2018-07-04T07:36:37.970Z,26.35
2018-07-04T07:37:37.859Z,26.24
2018-07-04T07:39:30.567Z,26.57
2018-07-04T07:40:30.474Z,26.68
2018-07-04T07:42:23.191Z,27.59
2018-07-04T07:43:23.074Z,27.45
2018-07-04T07:45:15.802Z,27.21
2018-07-04T07:46:15.684Z,27.06
2018-07-04T07:48:08.385Z,26.68
2018-07-04T07:49:08.292Z,26.59
2018-07-04T07:51:01.019Z,26.37
2018-07-04T07:52:00.903Z,26.32
2018-07-04T07:53:53.614Z,26.41
2018-07-04T07:54:53.521Z,26.50
2018-07-04T07:56:46.236Z,26.39
2018-07-04T07:57:46.127Z,26.49
2018-07-04T07:59:38.822Z,26.86
2018-07-04T08:00:38.736Z,27.45
2018-07-04T08:02:31.449Z,27.45
2018-07-04T08:03:31.335Z,27.42
2018-07-04T08:05:24.037Z,27.76
2018-07-04T08:06:23.940Z,27.55
2018-07-04T08:08:16.656Z,27.28
2018-07-04T08:09:16.548Z,27.00
2018-07-04T08:11:09.275Z,26.93
2018-07-04T08:12:09.149Z,27.38
2018-07-04T08:14:01.850Z,28.27
2018-07-04T08:15:01.769Z,28.17
2018-07-04T08:16:54.488Z,28.12
2018-07-04T08:17:54.368Z,28.03
2018-07-04T08:19:47.079Z,27.84
2018-07-04T08:20:46.984Z,27.93
2018-07-04T08:22:39.703Z,29.57
2018-07-04T08:23:39.594Z,30.34
2018-07-04T08:25:32.308Z,29.40
2018-07-04T08:26:32.205Z,29.36
2018-07-04T08:28:24.926Z,30.06
2018-07-04T08:29:24.817Z,30.14
2018-07-04T08:31:17.523Z,30.34
2018-07-04T08:32:17.436Z,31.07
2018-07-04T08:34:10.157Z,32.49
2018-07-04T08:35:10.052Z,32.80
2018-07-04T08:37:02.761Z,33.18
2018-07-04T08:38:02.671Z,33.59
2018-07-04T08:39:55.556Z,33.75
2018-07-04T08:40:55.630Z,33.41
2018-07-04T08:43:48.024Z,32.46
2018-07-04T08:45:40.755Z,32.76
2018-07-04T08:46:40.653Z,32.61
2018-07-04T08:48:33.365Z,31.88
2018-07-04T08:49:33.278Z,31.75
2018-07-04T08:51:26.012Z,31.40
2018-07-04T08:52:25.901Z,31.08
2018-07-04T08:54:18.645Z,30.34
2018-07-04T08:55:18.533Z,29.94
2018-07-04T08:57:11.245Z,29.97
2018-07-04T08:58:11.156Z,30.11
2018-07-04T09:00:03.877Z,29.82
2018-07-04T09:01:03.770Z,29.57
2018-07-04T09:02:56.476Z,29.02
2018-07-04T09:03:56.388Z,28.90
2018-07-04T09:05:49.116Z,28.58
2018-07-04T09:06:49.001Z,28.49
2018-07-04T09:08:41.703Z,28.33
2018-07-04T09:09:41.614Z,28.38
2018-07-04T09:11:34.359Z,28.23
2018-07-04T09:12:34.220Z,28.23
2018-07-04T09:14:26.923Z,28.27
2018-07-04T09:15:26.830Z,28.27
2018-07-04T09:17:19.627Z,28.51
2018-07-04T09:18:19.435Z,28.55
2018-07-04T09:20:12.137Z,28.53
2018-07-04T09:21:12.043Z,28.45
2018-07-04T09:23:04.758Z,28.61
2018-07-04T09:24:04.692Z,28.51
2018-07-04T09:25:57.344Z,28.21
2018-07-04T09:26:57.254Z,28.27
2018-07-04T09:28:54.596Z,28.28
2018-07-04T09:29:49.857Z,28.21
2018-07-04T09:31:42.584Z,28.49
2018-07-04T09:32:42.501Z,28.28
2018-07-04T09:34:35.163Z,28.03
2018-07-04T09:35:35.075Z,28.21
2018-07-04T09:37:27.788Z,28.18
2018-07-04T09:38:27.685Z,28.16
2018-07-04T09:40:20.377Z,28.17
2018-07-04T09:41:20.279Z,28.21
2018-07-04T09:43:12.997Z,28.17
2018-07-04T09:44:12.886Z,28.17
2018-07-04T09:46:05.582Z,28.17
2018-07-04T09:47:05.485Z,28.06
2018-07-04T09:48:58.205Z,28.11
2018-07-04T09:49:58.263Z,28.18
2018-07-04T09:51:50.785Z,28.09
2018-07-04T09:52:50.694Z,28.11
2018-07-04T09:54:43.408Z,27.99
2018-07-04T09:55:43.291Z,27.90
2018-07-04T09:57:35.997Z,27.96
2018-07-04T09:58:35.905Z,28.11
2018-07-04T10:00:28.630Z,28.21
2018-07-04T10:01:28.506Z,28.24
2018-07-04T10:03:21.206Z,28.21
2018-07-04T10:04:21.108Z,28.28
2018-07-04T10:06:13.824Z,28.26
2018-07-04T10:07:13.708Z,28.23
2018-07-04T10:09:06.410Z,28.26
2018-07-04T10:10:06.311Z,28.14
2018-07-04T10:11:59.182Z,28.24
2018-07-04T10:12:58.921Z,28.27
2018-07-04T10:14:51.637Z,28.35
2018-07-04T10:15:51.521Z,28.33
2018-07-04T10:17:44.222Z,28.36
2018-07-04T10:18:44.128Z,28.57
2018-07-04T10:20:36.843Z,28.54
2018-07-04T10:21:36.730Z,28.60
2018-07-04T10:23:29.424Z,28.86
2018-07-04T10:24:29.345Z,28.76
2018-07-04T10:26:22.044Z,28.58
2018-07-04T10:27:21.929Z,28.53
2018-07-04T10:29:14.633Z,28.64
2018-07-04T10:30:14.537Z,28.51
2018-07-04T10:32:07.250Z,28.39
2018-07-04T10:33:07.140Z,28.28
2018-07-04T10:34:59.838Z,28.28
2018-07-04T10:35:59.741Z,28.36
2018-07-04T10:37:52.461Z,28.60
2018-07-04T10:38:52.344Z,28.55
2018-07-04T10:40:45.039Z,28.57
2018-07-04T10:41:44.947Z,28.54
2018-07-04T10:43:37.660Z,28.60
2018-07-04T10:44:37.548Z,28.55
2018-07-04T10:46:31.235Z,28.85
2018-07-04T10:47:31.142Z,28.78
2018-07-04T10:49:23.863Z,28.76
2018-07-04T10:50:23.745Z,28.78
2018-07-04T10:52:16.476Z,28.97
2018-07-04T10:53:16.355Z,28.80
2018-07-04T10:55:09.055Z,28.67
2018-07-04T10:56:08.960Z,28.64
2018-07-04T10:58:01.676Z,28.68
2018-07-04T10:59:01.564Z,28.58
2018-07-04T11:00:54.258Z,28.76
2018-07-04T11:01:54.172Z,28.79
2018-07-04T11:03:46.880Z,28.91
2018-07-04T11:04:46.761Z,28.91
2018-07-04T11:06:39.467Z,29.03
2018-07-04T11:07:39.382Z,29.21
2018-07-04T11:09:32.085Z,29.29
2018-07-04T11:10:31.970Z,29.36
2018-07-04T11:12:24.678Z,29.36
2018-07-04T11:13:24.580Z,29.36
2018-07-04T11:15:17.443Z,29.36
2018-07-04T11:16:17.188Z,29.43
2018-07-04T11:18:09.888Z,29.50
2018-07-04T11:19:09.784Z,29.50
2018-07-04T11:21:02.516Z,29.50
2018-07-04T11:22:02.413Z,29.47
2018-07-04T11:23:55.090Z,29.51
2018-07-04T11:24:54.989Z,29.39
2018-07-04T11:26:47.710Z,29.21
2018-07-04T11:27:47.592Z,29.17
2018-07-04T11:29:40.319Z,29.39
2018-07-04T11:30:40.194Z,29.24
2018-07-04T11:32:32.891Z,29.39
2018-07-04T11:33:32.795Z,29.52
2018-07-04T11:35:25.509Z,29.51
2018-07-04T11:36:25.429Z,29.55
2018-07-04T11:38:18.097Z,29.60
2018-07-04T11:39:18.007Z,29.67
2018-07-04T11:41:10.716Z,29.54
2018-07-04T11:42:10.601Z,29.61
2018-07-04T11:44:03.300Z,29.54
2018-07-04T11:45:03.205Z,29.75
2018-07-04T11:46:55.926Z,29.81
2018-07-04T11:47:55.807Z,29.82
2018-07-04T11:49:48.504Z,29.77
2018-07-04T11:50:48.408Z,29.75
2018-07-04T11:52:41.127Z,29.91
2018-07-04T11:53:41.021Z,29.95
2018-07-04T11:55:33.712Z,30.11
2018-07-04T11:56:33.678Z,30.07
2018-07-04T11:58:26.338Z,30.06
2018-07-04T11:59:26.227Z,30.06
2018-07-04T12:01:18.947Z,30.09
2018-07-04T12:02:18.829Z,30.24
2018-07-04T12:04:11.528Z,29.95
2018-07-04T12:05:11.431Z,29.84
2018-07-04T12:07:04.157Z,29.60
2018-07-04T12:08:04.034Z,29.67
2018-07-04T12:09:56.735Z,29.81
2018-07-04T12:10:56.684Z,29.76
2018-07-04T12:12:49.344Z,29.75
2018-07-04T12:13:49.237Z,29.72
2018-07-04T12:15:41.936Z,29.76
2018-07-04T12:16:41.839Z,29.61
2018-07-04T12:18:34.557Z,29.42
2018-07-04T12:19:34.441Z,29.45
2018-07-04T12:21:27.138Z,29.67
2018-07-04T12:22:27.046Z,29.85
2018-07-04T12:24:19.764Z,30.06
2018-07-04T12:25:19.645Z,30.10
2018-07-04T12:27:12.344Z,30.11
2018-07-04T12:28:12.252Z,30.11
2018-07-04T12:30:04.965Z,30.09
2018-07-04T12:31:04.853Z,30.13
2018-07-04T12:32:57.580Z,30.34
2018-07-04T12:33:57.461Z,30.39
2018-07-04T12:35:50.155Z,30.47
2018-07-04T12:36:50.065Z,30.32
2018-07-04T12:38:42.782Z,30.37
2018-07-04T12:39:42.676Z,30.26
2018-07-04T12:41:35.379Z,30.22
2018-07-04T12:42:35.277Z,30.24
2018-07-04T12:44:27.996Z,30.21
2018-07-04T12:45:27.886Z,30.29
2018-07-04T12:47:20.616Z,30.32
2018-07-04T12:48:20.528Z,30.47
2018-07-04T12:50:13.204Z,30.57
2018-07-04T12:51:13.138Z,30.54
2018-07-04T12:53:05.807Z,30.48
2018-07-04T12:54:05.837Z,30.45
2018-07-04T12:55:58.386Z,30.34
2018-07-04T12:56:58.295Z,30.35
2018-07-04T12:58:51.008Z,30.34
2018-07-04T12:59:50.899Z,30.34
2018-07-04T13:01:43.600Z,30.45
2018-07-04T13:02:43.505Z,30.66
2018-07-04T13:04:36.226Z,30.64
2018-07-04T13:05:36.112Z,30.56
2018-07-04T13:07:28.808Z,30.57
2018-07-04T13:08:28.711Z,30.60
2018-07-04T13:10:21.432Z,30.57
2018-07-04T13:11:21.307Z,30.57
2018-07-04T13:13:14.004Z,30.69
2018-07-04T13:14:13.910Z,30.79
2018-07-04T13:16:06.678Z,30.84
2018-07-04T13:17:06.511Z,30.84
2018-07-04T13:18:59.208Z,30.56
2018-07-04T13:19:59.118Z,30.57
2018-07-04T13:21:51.831Z,30.63
2018-07-04T13:22:51.718Z,30.63
2018-07-04T13:24:44.445Z,30.70
2018-07-04T13:25:44.366Z,30.75
2018-07-04T13:27:37.016Z,30.85
2018-07-04T13:28:36.921Z,30.82
2018-07-04T13:30:29.641Z,31.03
2018-07-04T13:31:29.521Z,31.13
2018-07-04T13:33:22.226Z,30.99
2018-07-04T13:34:22.135Z,30.93
2018-07-04T13:36:14.852Z,30.99
2018-07-04T13:37:14.740Z,31.13
2018-07-04T13:39:07.428Z,31.06
2018-07-04T13:40:07.338Z,31.08
2018-07-04T13:42:00.055Z,31.18
2018-07-04T13:42:59.953Z,31.25
2018-07-04T13:44:52.637Z,31.16
2018-07-04T13:45:52.543Z,31.15
2018-07-04T13:47:45.253Z,31.15
2018-07-04T13:48:45.146Z,31.07
2018-07-04T13:50:37.834Z,30.85
2018-07-04T13:51:37.742Z,30.99
2018-07-04T13:53:30.462Z,31.21
2018-07-04T13:54:30.346Z,31.31
2018-07-04T13:56:23.057Z,31.36
2018-07-04T13:57:22.956Z,31.31
2018-07-04T13:59:15.677Z,31.23
2018-07-04T14:00:15.566Z,31.33
2018-07-04T14:02:08.292Z,31.23
2018-07-04T14:03:08.218Z,31.15
2018-07-04T14:05:00.858Z,31.37
2018-07-04T14:06:00.770Z,31.26
2018-07-04T14:07:53.488Z,31.50
2018-07-04T14:08:53.376Z,31.50
2018-07-04T14:10:46.219Z,31.70
2018-07-04T14:11:45.972Z,31.56
2018-07-04T14:13:38.697Z,31.45
2018-07-04T14:14:38.587Z,31.62
2018-07-04T14:16:31.279Z,31.65
2018-07-04T14:17:31.186Z,31.60
2018-07-04T14:19:23.903Z,31.50
2018-07-04T14:20:23.791Z,31.56
2018-07-04T14:22:16.496Z,31.56
2018-07-04T14:23:16.401Z,31.47
2018-07-04T14:25:09.130Z,31.63
2018-07-04T14:26:09.007Z,31.72
2018-07-04T14:28:02.704Z,31.75
2018-07-04T14:29:02.610Z,31.67
2018-07-04T14:30:55.324Z,31.43
2018-07-04T14:31:55.216Z,31.43
2018-07-04T14:33:47.913Z,31.23
2018-07-04T14:34:47.816Z,31.33
2018-07-04T14:36:40.537Z,31.40
2018-07-04T14:37:40.420Z,31.45
2018-07-04T14:39:33.122Z,31.45
2018-07-04T14:40:33.026Z,31.53
2018-07-04T14:42:25.746Z,31.93
2018-07-04T14:43:25.633Z,32.05
2018-07-04T14:45:18.353Z,32.12
2018-07-04T14:46:18.241Z,32.12
2018-07-04T14:48:10.943Z,32.19
2018-07-04T14:49:10.849Z,32.20
2018-07-04T14:51:03.568Z,32.23
2018-07-04T14:52:03.488Z,32.15
2018-07-04T14:53:56.159Z,32.00
2018-07-04T14:54:56.070Z,31.93
2018-07-04T14:56:48.782Z,31.77
2018-07-04T14:57:48.767Z,31.45
2018-07-04T14:59:41.374Z,31.50
2018-07-04T15:00:41.277Z,31.47
2018-07-04T15:02:34.014Z,31.44
2018-07-04T15:03:33.897Z,31.44
2018-07-04T15:05:26.591Z,31.40
2018-07-04T15:06:26.496Z,31.38
2018-07-04T15:08:19.237Z,31.37
2018-07-04T15:09:19.123Z,31.23
2018-07-04T15:11:11.844Z,31.21
2018-07-04T15:12:11.731Z,31.10
2018-07-04T15:14:04.433Z,31.01
2018-07-04T15:15:04.339Z,30.93
2018-07-04T15:16:57.059Z,30.81
2018-07-04T15:17:56.942Z,30.70
2018-07-04T15:19:49.646Z,30.60
2018-07-04T15:20:49.544Z,30.62
2018-07-04T15:22:42.271Z,30.64
2018-07-04T15:23:42.150Z,30.67
2018-07-04T15:25:34.857Z,30.75
2018-07-04T15:26:34.762Z,30.66
2018-07-04T15:28:27.475Z,30.78
2018-07-04T15:29:27.365Z,30.75
2018-07-04T15:31:20.062Z,30.93
2018-07-04T15:32:19.972Z,30.96
2018-07-04T15:34:12.692Z,30.79
2018-07-04T15:35:12.576Z,30.79
2018-07-04T15:37:05.306Z,30.35
2018-07-04T15:38:05.205Z,30.19
2018-07-04T15:39:57.883Z,29.98
2018-07-04T15:40:57.793Z,30.09
2018-07-04T15:42:50.516Z,30.11
2018-07-04T15:43:50.391Z,30.22
2018-07-04T15:45:43.096Z,30.21
2018-07-04T15:46:43.005Z,30.02
2018-07-04T15:48:35.720Z,30.16
2018-07-04T15:49:35.606Z,30.10
2018-07-04T15:51:28.307Z,30.11
2018-07-04T15:52:28.211Z,30.18
2018-07-04T15:54:20.925Z,30.22
2018-07-04T15:55:20.816Z,30.16
2018-07-04T15:57:13.510Z,30.13
2018-07-04T15:58:13.413Z,30.11
2018-07-04T16:00:06.131Z,30.19
2018-07-04T16:01:06.015Z,30.07
2018-07-04T16:02:58.712Z,29.94
2018-07-04T16:03:58.610Z,30.07
2018-07-04T16:05:51.407Z,30.19
2018-07-04T16:06:51.220Z,30.10
2018-07-04T16:08:43.914Z,30.24
2018-07-04T16:09:43.822Z,30.24
2018-07-04T16:11:36.543Z,30.31
2018-07-04T16:12:36.429Z,30.24
2018-07-04T16:14:29.153Z,30.40
2018-07-04T16:15:29.097Z,30.48
2018-07-04T16:17:21.743Z,30.75
2018-07-04T16:18:21.631Z,30.91
2018-07-04T16:20:14.346Z,30.57
2018-07-04T16:21:14.241Z,30.49
2018-07-04T16:23:06.941Z,30.42
2018-07-04T16:24:06.841Z,30.35
2018-07-04T16:25:59.721Z,30.52
2018-07-04T16:26:59.516Z,30.52
2018-07-04T16:28:52.206Z,30.62
2018-07-04T16:29:52.116Z,30.69
2018-07-04T16:31:44.834Z,30.66
2018-07-04T16:32:44.725Z,30.52
2018-07-04T16:34:37.416Z,30.62
2018-07-04T16:35:37.328Z,30.63
2018-07-04T16:37:30.067Z,30.54
2018-07-04T16:38:29.931Z,30.54
2018-07-04T16:40:22.636Z,30.54
2018-07-04T16:41:22.541Z,30.67
2018-07-04T16:43:15.312Z,30.67
2018-07-04T16:44:15.143Z,30.70
2018-07-04T16:46:07.882Z,30.85
2018-07-04T16:47:07.755Z,30.81
2018-07-04T16:49:00.490Z,30.84
2018-07-04T16:50:00.362Z,30.89
2018-07-04T16:51:53.088Z,30.82
2018-07-04T16:52:52.975Z,30.96
2018-07-04T16:54:45.670Z,30.89
2018-07-04T16:55:45.577Z,30.86
2018-07-04T16:57:38.292Z,30.93
2018-07-04T16:58:38.183Z,30.93
2018-07-04T17:00:30.900Z,30.78
2018-07-04T17:01:30.785Z,30.64
2018-07-04T17:03:23.504Z,30.63
2018-07-04T17:04:23.385Z,30.56
2018-07-04T17:06:16.084Z,30.48
2018-07-04T17:07:15.999Z,30.37
2018-07-04T17:09:08.711Z,30.18
2018-07-04T17:10:08.598Z,30.22
2018-07-04T17:12:01.291Z,30.19
2018-07-04T17:13:01.196Z,30.22
2018-07-04T17:14:53.911Z,30.22
2018-07-04T17:15:53.800Z,30.18
2018-07-04T17:17:46.502Z,30.25
2018-07-04T17:18:46.404Z,30.14
2018-07-04T17:20:39.132Z,30.24
2018-07-04T17:21:39.012Z,30.13
2018-07-04T17:23:31.712Z,30.16
2018-07-04T17:24:31.615Z,30.16
2018-07-04T17:26:24.330Z,30.09
2018-07-04T17:27:24.215Z,30.00
2018-07-04T17:29:16.912Z,29.92
2018-07-04T17:30:16.811Z,29.82
2018-07-04T17:32:09.529Z,29.87
2018-07-04T17:33:09.411Z,29.72
2018-07-04T17:35:02.136Z,29.61
2018-07-04T17:36:02.016Z,29.50
2018-07-04T17:37:54.707Z,29.39
2018-07-04T17:38:54.619Z,29.21
2018-07-04T17:40:47.326Z,29.02
2018-07-04T17:41:47.214Z,28.92
2018-07-04T17:43:39.909Z,28.92
2018-07-04T17:44:39.816Z,28.78
2018-07-04T17:46:32.529Z,28.75
2018-07-04T17:47:32.409Z,28.65
2018-07-04T17:49:25.107Z,28.53
2018-07-04T17:50:25.010Z,28.46
2018-07-04T17:52:17.719Z,28.35
2018-07-04T17:53:17.605Z,28.33
2018-07-04T17:55:10.295Z,28.18
2018-07-04T17:56:10.200Z,28.24
2018-07-04T17:58:02.915Z,28.16
2018-07-04T17:59:02.801Z,28.17
2018-07-04T18:00:55.493Z,28.11
2018-07-04T18:01:55.396Z,28.11
2018-07-04T18:03:48.103Z,27.94
2018-07-04T18:04:47.988Z,28.02
2018-07-04T18:06:40.707Z,27.94
2018-07-04T18:07:40.585Z,27.79
2018-07-04T18:09:33.277Z,27.76
2018-07-04T18:10:33.176Z,27.72
2018-07-04T18:12:25.895Z,27.62
2018-07-04T18:13:25.779Z,27.64
2018-07-04T18:15:18.476Z,27.61
2018-07-04T18:16:18.375Z,27.61
2018-07-04T18:18:11.087Z,27.59
2018-07-04T18:19:10.968Z,27.49
2018-07-04T18:21:03.811Z,27.49
2018-07-04T18:22:03.574Z,27.49
2018-07-04T18:23:56.288Z,27.42
2018-07-04T18:24:56.164Z,27.41
2018-07-04T18:26:48.854Z,27.30
2018-07-04T18:27:48.754Z,27.37
2018-07-04T18:29:41.460Z,27.31
2018-07-04T18:30:41.349Z,27.30
2018-07-04T18:32:34.100Z,27.34
2018-07-04T18:33:33.961Z,27.26
2018-07-04T18:35:26.673Z,27.27
2018-07-04T18:36:26.552Z,27.24
2018-07-04T18:38:19.242Z,27.16
2018-07-04T18:39:19.148Z,27.21
2018-07-04T18:41:11.856Z,27.16
2018-07-04T18:42:11.752Z,27.18
2018-07-04T18:44:04.438Z,27.12
2018-07-04T18:45:04.335Z,27.15
2018-07-04T18:46:57.046Z,27.18
2018-07-04T18:47:56.929Z,27.19
2018-07-04T18:49:49.624Z,27.19
2018-07-04T18:50:49.518Z,27.18
2018-07-04T18:52:42.241Z,27.06
2018-07-04T18:53:42.149Z,27.12
2018-07-04T18:55:34.813Z,27.09
2018-07-04T18:56:34.710Z,27.06
2018-07-04T18:58:27.428Z,26.96
2018-07-04T18:59:27.315Z,27.00
2018-07-04T19:01:20.006Z,26.99
2018-07-04T19:02:19.913Z,27.01
2018-07-04T19:04:12.623Z,26.99
2018-07-04T19:05:12.509Z,26.99
2018-07-04T19:07:05.193Z,26.82
2018-07-04T19:08:05.101Z,26.87
2018-07-04T19:09:57.812Z,26.87
2018-07-04T19:10:57.695Z,26.84
2018-07-04T19:12:50.389Z,26.81
2018-07-04T19:13:50.288Z,26.76
2018-07-04T19:15:42.992Z,26.75
2018-07-04T19:16:42.874Z,26.75
2018-07-04T19:18:35.568Z,26.74
2018-07-04T19:19:35.476Z,26.64
2018-07-04T19:21:28.176Z,26.61
2018-07-04T19:22:28.067Z,26.60
2018-07-04T19:24:20.781Z,26.42
2018-07-04T19:25:20.653Z,26.39
2018-07-04T19:27:13.346Z,26.41
2018-07-04T19:28:13.251Z,26.41
2018-07-04T19:30:05.961Z,26.35
2018-07-04T19:31:05.848Z,26.31
2018-07-04T19:32:58.594Z,26.26
2018-07-04T19:33:58.442Z,26.23
2018-07-04T19:35:51.157Z,26.24
2018-07-04T19:36:51.033Z,26.20
2018-07-04T19:38:43.726Z,26.15
2018-07-04T19:39:43.628Z,26.06
2018-07-04T19:41:36.406Z,26.03
2018-07-04T19:42:36.226Z,26.04
2018-07-04T19:44:28.917Z,25.88
2018-07-04T19:45:28.817Z,25.96
2018-07-04T19:47:21.528Z,25.85
2018-07-04T19:48:21.408Z,25.94
2018-07-04T19:50:14.100Z,25.75
2018-07-04T19:51:14.002Z,25.85
2018-07-04T19:53:06.723Z,25.84
2018-07-04T19:54:06.600Z,25.70
2018-07-04T19:55:59.297Z,25.67
2018-07-04T19:56:59.230Z,25.74
2018-07-04T19:58:51.901Z,25.54
2018-07-04T19:59:51.787Z,25.59
2018-07-04T20:01:44.473Z,25.48
2018-07-04T20:02:44.401Z,25.45
2018-07-04T20:04:37.089Z,25.39
2018-07-04T20:05:36.972Z,25.30
2018-07-04T20:07:29.656Z,25.26
2018-07-04T20:08:29.566Z,25.19
2018-07-04T20:10:22.292Z,25.14
2018-07-04T20:11:22.178Z,25.09
2018-07-04T20:13:14.892Z,25.04
2018-07-04T20:14:14.764Z,24.97
2018-07-04T20:16:07.491Z,24.96
2018-07-04T20:17:07.464Z,24.90
2018-07-04T20:19:00.079Z,24.83
2018-07-04T20:19:59.956Z,24.89
2018-07-04T20:21:52.764Z,24.89
2018-07-04T20:22:52.548Z,24.83
2018-07-04T20:24:45.257Z,24.92
2018-07-04T20:25:45.144Z,24.86
2018-07-04T20:27:37.843Z,24.82
2018-07-04T20:28:37.739Z,24.87
2018-07-04T20:30:30.438Z,24.77
2018-07-04T20:31:30.323Z,24.87
2018-07-04T20:33:23.014Z,24.59
2018-07-04T20:34:22.910Z,24.66
2018-07-04T20:36:15.617Z,24.56
2018-07-04T20:37:15.501Z,24.49
2018-07-04T20:39:08.190Z,24.61
2018-07-04T20:40:08.089Z,24.56
2018-07-04T20:42:00.796Z,24.48
2018-07-04T20:43:00.684Z,24.45
2018-07-04T20:44:53.368Z,24.42
2018-07-04T20:45:53.273Z,24.39
2018-07-04T20:47:45.999Z,24.36
2018-07-04T20:48:45.906Z,24.29
2018-07-04T20:50:38.551Z,24.33
2018-07-04T20:51:38.460Z,24.33
2018-07-04T20:53:31.165Z,24.32
2018-07-04T20:54:31.102Z,24.32
2018-07-04T20:56:23.737Z,24.30
2018-07-04T20:57:23.644Z,24.33
2018-07-04T20:59:16.340Z,24.27
2018-07-04T21:00:16.228Z,24.33
2018-07-04T21:02:08.951Z,24.26
2018-07-04T21:03:08.819Z,24.24
2018-07-04T21:05:01.503Z,24.27
2018-07-04T21:06:01.414Z,24.24
2018-07-04T21:07:54.118Z,24.21
2018-07-04T21:08:53.993Z,24.17
2018-07-04T21:10:46.682Z,24.15
2018-07-04T21:11:46.583Z,24.14
2018-07-04T21:13:39.284Z,24.03
2018-07-04T21:14:39.169Z,24.08
2018-07-04T21:16:31.878Z,23.99
2018-07-04T21:17:31.756Z,24.08
2018-07-04T21:19:24.460Z,23.99
2018-07-04T21:20:24.346Z,23.93
2018-07-04T21:22:17.031Z,23.89
2018-07-04T21:23:16.930Z,23.87
2018-07-04T21:25:09.645Z,23.81
2018-07-04T21:26:09.530Z,23.78
2018-07-04T21:28:02.211Z,23.81
2018-07-04T21:29:02.114Z,23.79
2018-07-04T21:30:54.823Z,23.75
2018-07-04T21:31:54.707Z,23.71
2018-07-04T21:33:47.397Z,23.57
2018-07-04T21:34:47.301Z,23.64
2018-07-04T21:36:40.008Z,23.64
2018-07-04T21:37:39.892Z,23.57
2018-07-04T21:39:32.573Z,23.55
2018-07-04T21:40:32.478Z,23.50
2018-07-04T21:42:25.180Z,23.55
2018-07-04T21:43:25.065Z,23.52
2018-07-04T21:45:17.753Z,23.47
2018-07-04T21:46:17.657Z,23.38
2018-07-04T21:48:10.361Z,23.42
2018-07-04T21:49:10.237Z,23.38
2018-07-04T21:51:02.934Z,23.41
2018-07-04T21:52:02.835Z,23.37
2018-07-04T21:53:55.536Z,23.42
2018-07-04T21:54:55.415Z,23.37
2018-07-04T21:56:48.104Z,23.38
2018-07-04T21:57:48.009Z,23.25
2018-07-04T21:59:40.714Z,23.25
